Latest Weather Observations for Mount Hotham AWS

IDV60801

Issued at 7:35 am EST Thursday 18 September 2014 (issued every 30 minutes, with the page automatically refreshed every 10 minutes)

About weather observations | Map of weather stations | Latest weather observations for VIC | Other Formats
Station Details ID: 083085 Name: MOUNT HOTHAM Lat: -36.98 Lon: 147.13 Height: 1849.0 m
Data from the previous 72 hours. | See also: Recent months at Mount Hotham AWS
Date/Time
EST
Temp
°C
App
Temp
°C
Dew
Point
Rel
Hum
%
Delta-T
°C
Wind Press
QNH
hPa
Press
MSL
hPa
Rain
since 9 am
mm
Dir
 
Spd
km/h
Gust
km/h
Spd
kts
Gust
kts
18/07:30am -4.6 -13.3 -4.7 99 -0.2 SW 32 43 17 23 - - 1.2
18/07:00am -4.7 -13.0 -4.8 99 -0.2 SW 30 41 16 22 - - 1.2
18/06:30am -4.7 -13.0 -4.8 99 -0.2 SW 30 41 16 22 - - 1.2
18/06:00am -4.6 -12.5 -4.7 99 -0.2 SW 28 37 15 20 - - 1.2
18/05:30am -4.6 -12.9 -4.7 99 -0.2 SW 30 39 16 21 - - 1.2
18/05:00am -4.7 -13.4 -4.8 99 -0.2 SW 32 39 17 21 - - 1.2
18/04:30am -4.7 -13.9 -4.8 99 -0.2 SW 35 44 19 24 - - 1.2
18/04:00am -4.8 -14.4 -4.9 99 -0.2 SW 37 50 20 27 - - 1.2
18/03:30am -4.9 -14.5 -5.0 99 -0.2 SW 37 46 20 25 - - 1.2
18/03:00am -5.0 -14.6 -5.1 99 -0.2 SW 37 48 20 26 - - 1.2
18/02:40am -5.0 -13.9 -5.1 99 -0.2 SW 33 56 18 30 - - 1.2
18/02:30am -4.8 -14.0 -4.9 99 -0.2 SW 35 48 19 26 - - 1.2
18/02:00am -4.9 -13.6 -5.0 99 -0.2 SW 32 43 17 23 - - 1.2
18/01:30am -4.8 -12.7 -4.9 99 -0.2 SW 28 37 15 20 - - 1.2
18/01:15am -4.8 -12.7 -4.9 99 -0.2 SW 28 48 15 26 - - 1.2
18/01:00am -4.8 -12.0 -4.9 99 -0.2 SW 24 35 13 19 - - 1.2
18/12:30am -4.5 -12.0 -4.6 99 -0.2 SW 26 39 14 21 - - 1.2
18/12:00am -4.4 -10.6 -4.5 99 -0.2 SW 19 35 10 19 - - 1.2
 
Date/Time
EST
Temp
°C
App
Temp
°C
Dew
Point
Rel
Hum
%
Delta-T
°C
Wind Press
QNH
hPa
Press
MSL
hPa
Rain
since 9 am
mm
Dir
 
Spd
km/h
Gust
km/h
Spd
kts
Gust
kts
17/11:30pm -4.4 -10.2 -4.5 99 -0.2 SW 17 28 9 15 - - 1.2
17/11:00pm -4.3 -11.0 -4.4 99 -0.2 SW 22 32 12 17 - - 1.2
17/10:30pm -4.1 -11.2 -4.2 99 -0.2 SW 24 35 13 19 - - 1.2
17/10:00pm -3.7 -9.4 -3.8 99 -0.1 SW 17 28 9 15 - - 1.2
17/09:30pm -3.4 -9.6 -3.5 99 -0.1 SW 20 30 11 16 - - 1.2
17/09:00pm -3.3 -9.5 -3.4 99 -0.1 SW 20 32 11 17 - - 1.2
17/08:30pm -3.3 -9.5 -3.4 99 -0.1 SW 20 39 11 21 - - 1.2
17/08:00pm -3.0 -11.1 -3.1 99 -0.1 SW 30 48 16 26 - - 1.2
17/07:45pm -2.9 -11.4 -3.0 99 -0.1 SW 32 52 17 28 - - 1.2
17/07:30pm -2.6 -10.3 -2.7 99 -0.1 SW 28 44 15 24 - - 1.2
17/07:00pm -2.5 -10.9 -2.6 99 -0.1 SW 32 46 17 25 - - 1.2
17/06:30pm -2.6 -11.0 -2.7 99 -0.1 SW 32 48 17 26 - - 1.2
17/06:00pm -2.6 -10.6 -2.7 99 -0.1 SW 30 41 16 22 - - 1.2
17/05:30pm -2.3 -9.5 -2.4 99 -0.1 SW 26 37 14 20 - - 1.2
17/05:02pm -2.2 -9.8 -2.3 99 -0.1 SW 28 46 15 25 - - 1.2
17/05:00pm -2.2 -10.6 -2.3 99 -0.1 SW 32 46 17 25 - - 1.2
17/04:41pm -1.8 -11.8 -1.9 99 -0.1 SW 41 63 22 34 - - 1.2
17/04:30pm -1.4 -11.0 -1.5 99 0.0 SW 39 54 21 29 - - 1.2
17/04:00pm -1.3 -9.7 -1.4 99 0.0 SW 33 56 18 30 - - 1.2
17/03:30pm -1.2 -10.0 -1.3 99 0.0 SW 35 56 19 30 - - 1.2
17/03:22pm -1.4 -9.7 -1.5 99 0.0 SW 32 56 17 30 - - 1.2
17/03:00pm -1.5 -10.0 -1.6 99 0.0 SW 33 46 18 25 - - 1.0
17/02:30pm -1.4 -9.9 -1.5 99 0.0 SW 33 52 18 28 - - 1.0
17/02:00pm -1.2 -10.4 -1.3 99 0.0 SW 37 50 20 27 - - 1.0
17/01:41pm -1.1 -9.5 -1.2 99 0.0 SW 33 52 18 28 - - 1.0
17/01:30pm -1.4 -10.2 -1.5 99 0.0 SW 35 46 19 25 - - 1.0
17/01:12pm -1.3 -10.1 -1.4 99 0.0 SW 35 54 19 29 - - 1.0
17/01:00pm -1.4 -10.2 -1.5 99 0.0 SW 35 50 19 27 - - 0.6
17/12:54pm -1.4 -9.7 -1.5 99 0.0 SW 32 50 17 27 - - 0.6
17/12:30pm -1.3 -8.4 -1.4 99 0.0 SW 26 43 14 23 - - 0.6
17/12:00pm -1.6 -9.1 -1.7 99 0.0 SW 28 44 15 24 - - 0.6
17/11:54am -1.6 -9.1 -1.7 99 0.0 SW 28 44 15 24 - - 0.6
17/11:30am -1.8 -4.0 -1.9 99 -0.1 CALM 0 0 0 0 - - 0.6
17/11:00am -1.7 -3.9 -1.8 99 0.0 CALM 0 0 0 0 - - 0.6
17/10:30am -1.8 -4.0 -1.9 99 -0.1 CALM 0 0 0 0 - - 0.0
17/10:00am -2.0 -4.3 -2.1 99 -0.1 CALM 0 0 0 0 - - 0.0
17/09:30am -2.1 -4.4 -2.2 99 -0.1 CALM 0 0 0 0 - - 0.0
17/09:00am -2.3 -4.6 -2.4 99 -0.1 CALM 0 0 0 0 - - 9.0
17/08:30am -2.5 -4.8 -2.6 99 -0.1 CALM 0 0 0 0 - - -
17/08:00am -2.5 -4.8 -2.6 99 -0.1 CALM 0 0 0 0 - - -
17/07:30am -2.9 -5.3 -3.0 99 -0.1 CALM 0 0 0 0 - - -
17/07:00am -3.0 -5.4 -3.1 99 -0.1 CALM 0 0 0 0 - - -
17/06:30am -2.9 -5.3 -3.0 99 -0.1 CALM 0 0 0 0 - - -
17/06:00am -2.9 -5.3 -3.0 99 -0.1 CALM 0 0 0 0 - - -
17/05:30am -2.5 -4.8 -2.6 99 -0.1 CALM 0 0 0 0 - - -
17/05:00am -2.5 -4.8 -2.6 99 -0.1 CALM 0 0 0 0 - - -
17/04:30am -2.5 -4.8 -2.6 99 -0.1 CALM 0 0 0 0 - - -
17/04:00am -2.7 -5.1 -2.8 99 -0.1 CALM 0 0 0 0 - - -
17/03:30am -1.9 -4.2 -2.0 99 -0.1 CALM 0 0 0 0 - - -
17/03:00am -1.6 -3.8 -1.7 99 0.0 CALM 0 0 0 0 - - 0.8
17/02:30am -1.8 -4.0 -1.9 99 -0.1 CALM 0 0 0 0 - - -
17/02:00am -1.5 -3.7 -1.6 99 0.0 CALM 0 0 0 0 - - -
17/01:30am -1.2 -3.4 -1.3 99 0.0 CALM 0 0 0 0 - - -
17/01:00am -0.9 -3.0 -1.0 99 0.0 CALM 0 0 0 0 - - -
17/12:30am -0.6 -3.1 -0.7 99 0.0 SW 2 19 1 10 - - -
17/12:00am -0.2 -4.7 -0.3 99 0.0 SW 13 20 7 11 - - -
 
Date/Time
EST
Temp
°C
App
Temp
°C
Dew
Point
Rel
Hum
%
Delta-T
°C
Wind Press
QNH
hPa
Press
MSL
hPa
Rain
since 9 am
mm
Dir
 
Spd
km/h
Gust
km/h
Spd
kts
Gust
kts
16/11:30pm 0.1 -4.7 0.0 99 0.0 WSW 15 20 8 11 - - -
16/11:00pm 0.7 -4.8 0.6 99 0.0 WSW 19 30 10 16 - - -
16/10:30pm 1.0 -3.3 0.9 99 0.0 WSW 13 22 7 12 - - -
16/10:00pm 1.1 -3.6 1.0 99 0.0 SSW 15 20 8 11 - - -
16/09:30pm 1.1 -4.3 1.0 99 0.0 S 19 24 10 13 - - -
16/09:00pm 1.0 -5.8 0.9 99 0.0 S 26 33 14 18 - - -
16/08:30pm 0.9 -4.2 0.8 99 0.0 S 17 24 9 13 - - -
16/08:00pm 1.6 -2.6 1.5 99 0.0 WSW 13 17 7 9 - - -
16/07:30pm 1.6 -3.8 1.5 99 0.0 SW 19 30 10 16 - - -
16/07:00pm 2.0 -2.9 1.9 99 0.0 SW 17 24 9 13 - - -
16/06:30pm 1.7 -3.6 1.6 99 0.0 SW 19 24 10 13 - - -
16/06:00pm 2.0 -3.5 1.9 99 0.0 W 20 32 11 17 - - -
16/05:30pm 2.0 -4.2 1.9 99 0.0 W 24 37 13 20 - - -
16/05:00pm 1.7 -5.0 1.6 99 0.0 WNW 26 35 14 19 - - -
16/04:30pm 1.7 -5.7 1.6 99 0.0 W 30 43 16 23 - - -
16/04:00pm 2.6 -4.3 2.5 99 0.0 W 28 37 15 20 - - -
16/03:30pm 1.8 -3.7 1.7 99 0.0 W 20 39 11 21 - - -
16/03:22pm 2.7 -4.9 2.6 99 0.0 NW 32 50 17 27 - - -
16/03:00pm 2.8 -5.0 2.7 99 0.0 NNW 33 44 18 24 - - 0.0
16/02:30pm 3.5 -2.9 3.4 99 0.0 NW 26 35 14 19 - - 0.0
16/02:00pm 3.7 -1.9 3.3 97 0.2 NW 22 32 12 17 - - 0.0
16/01:30pm 3.2 -3.6 2.9 98 0.1 NW 28 46 15 25 - - 0.0
16/01:29pm 3.2 -3.6 2.9 98 0.1 NW 28 46 15 25 - - 0.0
16/01:00pm 3.6 -3.1 3.5 99 0.0 NNW 28 39 15 21 - - 0.0
16/12:30pm 3.5 -3.3 2.9 96 0.3 NNW 28 37 15 20 - - 0.0
16/12:00pm 4.1 -1.7 2.3 88 0.8 NW 22 33 12 18 - - 0.0
16/11:30am 4.8 -2.5 2.7 86 1.0 NW 30 39 16 21 - - 0.0
16/11:00am 4.9 -2.7 2.6 85 1.1 NNW 32 41 17 22 - - 0.0
16/10:30am 4.9 -2.8 2.3 83 1.2 N 32 41 17 22 - - 0.0
16/10:00am 4.0 -3.8 1.5 84 1.1 N 32 41 17 22 - - 0.0
16/09:30am 5.1 -3.3 1.8 79 1.5 N 35 43 19 23 - - 0.0
16/09:00am 4.3 -4.1 1.8 84 1.1 N 35 44 19 24 - - 2.0
16/08:30am 3.8 -6.3 1.5 85 1.0 N 44 54 24 29 - - 2.0
16/08:00am 3.6 -5.6 1.3 85 1.0 N 39 56 21 30 - - 2.0
16/07:30am 3.5 -7.0 1.2 85 1.0 N 46 61 25 33 - - 2.0
16/07:00am 3.8 -5.4 1.0 82 1.2 N 39 52 21 28 - - 2.0
16/06:30am 3.7 -8.1 0.7 81 1.3 N 52 61 28 33 - - 2.0
16/06:00am 4.0 -7.1 0.3 77 1.6 N 48 61 26 33 - - 2.0
16/05:38am 4.2 -5.1 0.4 76 1.6 N 39 57 21 31 - - 2.0
16/05:30am 4.4 -6.3 0.2 74 1.8 N 46 59 25 32 - - 2.0
16/05:00am 4.7 -6.7 0.3 73 1.9 N 50 61 27 33 - - 2.0
16/04:30am 4.5 -7.0 0.1 73 1.9 N 50 67 27 36 - - 2.0
16/04:00am 4.4 -5.7 0.2 74 1.8 N 43 52 23 28 - - 2.0
16/03:41am 4.6 -5.5 0.4 74 1.8 N 43 61 23 33 - - 2.0
16/03:30am 4.3 -5.8 0.3 75 1.7 N 43 57 23 31 - - 2.0
16/03:25am 4.4 -4.9 0.4 75 1.7 N 39 57 21 31 - - 2.0
16/03:00am 3.9 -4.7 0.4 78 1.5 N 35 43 19 23 - - 2.0
16/02:30am 4.4 -5.3 0.2 74 1.8 N 41 52 22 28 - - 2.0
16/02:00am 4.0 -7.4 0.7 79 1.4 N 50 67 27 36 - - 2.0
16/01:49am 4.1 -6.1 0.8 79 1.4 N 44 67 24 36 - - 2.0
16/01:30am 3.7 -6.3 1.1 83 1.1 N 43 46 23 25 - - 2.0
16/01:00am 3.9 -6.3 0.8 80 1.3 N 44 56 24 30 - - 2.0
16/12:30am 3.8 -5.8 1.0 82 1.2 N 41 48 22 26 - - 2.0
16/12:00am 3.7 -6.3 1.3 84 1.1 N 43 52 23 28 - - 2.0
 
Date/Time
EST
Temp
°C
App
Temp
°C
Dew
Point
Rel
Hum
%
Delta-T
°C
Wind Press
QNH
hPa
Press
MSL
hPa
Rain
since 9 am
mm
Dir
 
Spd
km/h
Gust
km/h
Spd
kts
Gust
kts
15/11:30pm 3.7 -6.3 1.1 83 1.1 N 43 52 23 28 - - 2.0
15/11:00pm 3.4 -6.6 1.0 84 1.0 N 43 52 23 28 - - 2.0
15/10:30pm 3.4 -6.6 0.8 83 1.1 N 43 50 23 27 - - 2.0
15/10:00pm 3.5 -6.7 1.1 84 1.0 N 44 54 24 29 - - 2.0
15/09:30pm 2.9 -7.1 1.1 88 0.8 N 43 50 23 27 - - 2.0
15/09:00pm 2.6 -6.2 1.3 91 0.6 N 37 43 20 23 - - 2.0
15/08:30pm 2.6 -6.6 1.3 91 0.6 N 39 48 21 26 - - 2.0
15/08:00pm 2.5 -6.7 1.5 93 0.4 N 39 48 21 26 - - 2.0
15/07:30pm 2.4 -7.7 1.7 95 0.3 N 44 50 24 27 - - 2.0
15/07:00pm 2.3 -6.8 1.7 96 0.3 N 39 44 21 24 - - 2.0
15/06:30pm 1.9 -5.5 1.8 99 0.0 NNW 30 33 16 18 - - 2.0
15/06:00pm 2.0 -6.0 1.9 99 0.0 N 33 37 18 20 - - 2.0
15/05:30pm 1.7 -5.4 1.6 99 0.0 N 28 33 15 18 - - 1.8
15/05:00pm 1.8 -6.0 1.7 99 0.0 N 32 43 17 23 - - 1.2
15/04:30pm 2.7 -5.2 0.9 88 0.8 NNW 32 43 17 23 - - 0.0
15/04:00pm 4.1 -2.6 1.5 83 1.2 NNW 26 32 14 17 - - 0.0
15/03:30pm 4.5 -2.7 1.0 78 1.5 NW 28 41 15 22 - - 0.0
15/03:00pm 5.2 -1.5 1.3 76 1.7 NW 26 33 14 18 - - 0.0
15/02:30pm 4.6 -2.1 1.3 79 1.5 NW 26 33 14 18 - - 0.0
15/02:00pm 5.0 -1.3 1.3 77 1.6 NNW 24 33 13 18 - - 0.0
15/01:30pm 4.9 -1.5 0.7 74 1.8 NNW 24 30 13 16 - - 0.0
15/01:00pm 4.6 -1.4 1.3 79 1.5 NNW 22 30 12 16 - - 0.0
15/12:30pm 4.8 -1.2 1.1 77 1.6 NNW 22 28 12 15 - - 0.0
15/12:00pm 4.1 -1.6 0.6 78 1.5 NNW 20 28 11 15 - - 0.0
15/11:30am 4.2 -1.5 0.4 76 1.6 NW 20 30 11 16 - - 0.0
15/11:00am 3.6 -1.9 0.8 82 1.2 WNW 19 22 10 12 - - 0.0
15/10:30am 2.8 -3.3 0.5 85 1.0 NNW 22 28 12 15 - - 0.0
15/10:00am 3.1 -2.4 0.5 83 1.1 NW 19 28 10 15 - - 0.0
15/09:30am 3.4 -1.7 1.0 84 1.0 WNW 17 22 9 12 - - 0.0
15/09:00am 2.7 -2.9 -0.2 81 1.2 NW 19 24 10 13 - - 0.0
15/08:30am 2.4 -3.9 -0.7 80 1.3 NW 22 28 12 15 - - 0.0
15/08:00am 2.1 -4.6 -1.2 79 1.3 NW 24 28 13 15 - - 0.0

Other Formats:

Comma delimited format used in spreadsheet applications
http://www.bom.gov.au/fwo/IDV60801/IDV60801.94906.axf

JavaScript Object Notation format (JSON) in row-major order
http://www.bom.gov.au/fwo/IDV60801/IDV60801.94906.json